sensor_id;sensor_type;location;lat;lon;timestamp;P1;durP1;ratioP1;P2;durP2;ratioP2
26512;SDS011;14186;53.822;10.152;2023-02-01T00:04:29;19.00;;;2.67;;
26512;SDS011;14186;53.822;10.152;2023-02-01T00:09:31;37.15;;;4.20;;
26512;SDS011;14186;53.822;10.152;2023-02-01T00:14:31;29.30;;;4.28;;
26512;SDS011;14186;53.822;10.152;2023-02-01T00:19:32;23.25;;;3.05;;
26512;SDS011;14186;53.822;10.152;2023-02-01T00:24:33;23.05;;;3.00;;
26512;SDS011;14186;53.822;10.152;2023-02-01T00:29:34;20.95;;;3.10;;
26512;SDS011;14186;53.822;10.152;2023-02-01T00:34:34;21.98;;;3.35;;
26512;SDS011;14186;53.822;10.152;2023-02-01T00:39:36;23.60;;;3.55;;
26512;SDS011;14186;53.822;10.152;2023-02-01T00:44:36;22.05;;;3.33;;
26512;SDS011;14186;53.822;10.152;2023-02-01T00:49:36;27.75;;;3.65;;
26512;SDS011;14186;53.822;10.152;2023-02-01T00:54:38;30.27;;;3.88;;
26512;SDS011;14186;53.822;10.152;2023-02-01T00:59:38;23.88;;;3.40;;
26512;SDS011;14186;53.822;10.152;2023-02-01T01:04:39;27.40;;;3.67;;
26512;SDS011;14186;53.822;10.152;2023-02-01T01:09:40;30.13;;;5.05;;
26512;SDS011;14186;53.822;10.152;2023-02-01T01:14:41;32.05;;;4.43;;
26512;SDS011;14186;53.822;10.152;2023-02-01T01:19:41;29.33;;;3.97;;
26512;SDS011;14186;53.822;10.152;2023-02-01T01:24:42;24.65;;;4.22;;
26512;SDS011;14186;53.822;10.152;2023-02-01T01:29:43;32.95;;;4.82;;
26512;SDS011;14186;53.822;10.152;2023-02-01T01:34:43;25.50;;;4.47;;
26512;SDS011;14186;53.822;10.152;2023-02-01T01:39:45;29.73;;;3.85;;
26512;SDS011;14186;53.822;10.152;2023-02-01T01:44:56;34.03;;;4.22;;
26512;SDS011;14186;53.822;10.152;2023-02-01T01:49:56;26.95;;;3.85;;
26512;SDS011;14186;53.822;10.152;2023-02-01T01:54:59;33.70;;;5.60;;
26512;SDS011;14186;53.822;10.152;2023-02-01T02:00:00;43.60;;;4.65;;
26512;SDS011;14186;53.822;10.152;2023-02-01T02:05:01;36.10;;;4.15;;
26512;SDS011;14186;53.822;10.152;2023-02-01T02:10:04;25.93;;;5.63;;
26512;SDS011;14186;53.822;10.152;2023-02-01T02:15:05;31.75;;;4.45;;
26512;SDS011;14186;53.822;10.152;2023-02-01T02:20:18;22.17;;;4.47;;
26512;SDS011;14186;53.822;10.152;2023-02-01T02:30:48;34.92;;;5.20;;
26512;SDS011;14186;53.822;10.152;2023-02-01T02:35:54;33.80;;;4.55;;
26512;SDS011;14186;53.822;10.152;2023-02-01T02:41:01;27.83;;;4.28;;
26512;SDS011;14186;53.822;10.152;2023-02-01T02:46:04;30.70;;;5.43;;
26512;SDS011;14186;53.822;10.152;2023-02-01T02:51:09;33.55;;;4.38;;
26512;SDS011;14186;53.822;10.152;2023-02-01T02:56:12;41.65;;;5.13;;
26512;SDS011;14186;53.822;10.152;2023-02-01T03:01:12;26.33;;;3.38;;
26512;SDS011;14186;53.822;10.152;2023-02-01T03:06:14;24.45;;;3.78;;
26512;SDS011;14186;53.822;10.152;2023-02-01T03:11:16;26.25;;;3.28;;
26512;SDS011;14186;53.822;10.152;2023-02-01T03:16:17;17.13;;;2.65;;
26512;SDS011;14186;53.822;10.152;2023-02-01T03:21:20;19.73;;;2.95;;
26512;SDS011;14186;53.822;10.152;2023-02-01T03:26:21;16.13;;;3.47;;
26512;SDS011;14186;53.822;10.152;2023-02-01T03:31:22;26.40;;;3.60;;
26512;SDS011;14186;53.822;10.152;2023-02-01T03:36:26;24.00;;;3.67;;
26512;SDS011;14186;53.822;10.152;2023-02-01T03:41:33;26.75;;;4.28;;
26512;SDS011;14186;53.822;10.152;2023-02-01T03:46:35;13.75;;;3.00;;
26512;SDS011;14186;53.822;10.152;2023-02-01T03:51:38;25.60;;;3.22;;
26512;SDS011;14186;53.822;10.152;2023-02-01T03:56:39;13.00;;;3.03;;
26512;SDS011;14186;53.822;10.152;2023-02-01T04:01:41;16.90;;;2.03;;
26512;SDS011;14186;53.822;10.152;2023-02-01T04:06:43;11.68;;;1.67;;
26512;SDS011;14186;53.822;10.152;2023-02-01T04:11:43;8.32;;;1.27;;
26512;SDS011;14186;53.822;10.152;2023-02-01T04:16:43;11.77;;;1.13;;
26512;SDS011;14186;53.822;10.152;2023-02-01T04:21:45;10.02;;;1.40;;
26512;SDS011;14186;53.822;10.152;2023-02-01T04:26:45;9.57;;;1.65;;
26512;SDS011;14186;53.822;10.152;2023-02-01T04:31:45;10.25;;;2.03;;
26512;SDS011;14186;53.822;10.152;2023-02-01T04:36:47;15.45;;;2.30;;
26512;SDS011;14186;53.822;10.152;2023-02-01T04:41:47;16.98;;;2.30;;
26512;SDS011;14186;53.822;10.152;2023-02-01T04:46:47;13.27;;;2.72;;
26512;SDS011;14186;53.822;10.152;2023-02-01T04:51:49;8.88;;;1.98;;
26512;SDS011;14186;53.822;10.152;2023-02-01T04:56:49;13.13;;;1.85;;
26512;SDS011;14186;53.822;10.152;2023-02-01T05:01:49;16.25;;;1.95;;
26512;SDS011;14186;53.822;10.152;2023-02-01T05:06:51;11.85;;;2.35;;
26512;SDS011;14186;53.822;10.152;2023-02-01T05:11:51;15.65;;;2.15;;
26512;SDS011;14186;53.822;10.152;2023-02-01T05:16:51;16.45;;;2.40;;
26512;SDS011;14186;53.822;10.152;2023-02-01T05:21:53;13.80;;;2.13;;
26512;SDS011;14186;53.822;10.152;2023-02-01T05:26:53;5.13;;;1.08;;
26512;SDS011;14186;53.822;10.152;2023-02-01T05:31:53;11.52;;;1.40;;
26512;SDS011;14186;53.822;10.152;2023-02-01T05:36:55;11.07;;;2.80;;
26512;SDS011;14186;53.822;10.152;2023-02-01T05:41:55;11.48;;;1.20;;
26512;SDS011;14186;53.822;10.152;2023-02-01T05:46:55;10.35;;;1.30;;
26512;SDS011;14186;53.822;10.152;2023-02-01T05:51:57;3.17;;;0.70;;
26512;SDS011;14186;53.822;10.152;2023-02-01T05:56:57;5.07;;;0.70;;
26512;SDS011;14186;53.822;10.152;2023-02-01T06:01:57;4.90;;;0.80;;
26512;SDS011;14186;53.822;10.152;2023-02-01T06:06:59;7.47;;;1.08;;
26512;SDS011;14186;53.822;10.152;2023-02-01T06:11:59;10.95;;;1.25;;
26512;SDS011;14186;53.822;10.152;2023-02-01T06:17:00;3.55;;;1.00;;
26512;SDS011;14186;53.822;10.152;2023-02-01T06:22:01;4.43;;;0.60;;
26512;SDS011;14186;53.822;10.152;2023-02-01T06:27:02;3.70;;;1.00;;
26512;SDS011;14186;53.822;10.152;2023-02-01T06:32:02;13.68;;;1.05;;
26512;SDS011;14186;53.822;10.152;2023-02-01T06:37:04;10.35;;;1.42;;
26512;SDS011;14186;53.822;10.152;2023-02-01T06:42:04;10.18;;;1.27;;
26512;SDS011;14186;53.822;10.152;2023-02-01T06:47:04;9.60;;;1.30;;
26512;SDS011;14186;53.822;10.152;2023-02-01T06:52:06;6.88;;;1.05;;
26512;SDS011;14186;53.822;10.152;2023-02-01T06:57:06;11.90;;;1.60;;
26512;SDS011;14186;53.822;10.152;2023-02-01T07:02:08;13.77;;;1.33;;
26512;SDS011;14186;53.822;10.152;2023-02-01T07:07:10;11.80;;;2.22;;
26512;SDS011;14186;53.822;10.152;2023-02-01T07:12:11;13.25;;;3.08;;
26512;SDS011;14186;53.822;10.152;2023-02-01T07:17:11;19.90;;;2.20;;
26512;SDS011;14186;53.822;10.152;2023-02-01T07:22:13;18.42;;;2.10;;
26512;SDS011;14186;53.822;10.152;2023-02-01T07:27:15;20.67;;;3.65;;
26512;SDS011;14186;53.822;10.152;2023-02-01T07:32:16;20.75;;;3.63;;
26512;SDS011;14186;53.822;10.152;2023-02-01T07:37:17;15.70;;;2.47;;
26512;SDS011;14186;53.822;10.152;2023-02-01T07:42:17;23.55;;;3.67;;
26512;SDS011;14186;53.822;10.152;2023-02-01T07:47:17;24.08;;;3.50;;
26512;SDS011;14186;53.822;10.152;2023-02-01T07:52:19;28.88;;;3.80;;
26512;SDS011;14186;53.822;10.152;2023-02-01T07:57:19;39.90;;;4.80;;
26512;SDS011;14186;53.822;10.152;2023-02-01T08:02:19;26.65;;;3.70;;
26512;SDS011;14186;53.822;10.152;2023-02-01T08:07:21;21.13;;;3.50;;
26512;SDS011;14186;53.822;10.152;2023-02-01T08:12:21;23.67;;;3.40;;
26512;SDS011;14186;53.822;10.152;2023-02-01T08:17:22;16.88;;;3.25;;
26512;SDS011;14186;53.822;10.152;2023-02-01T08:22:23;24.65;;;3.03;;
26512;SDS011;14186;53.822;10.152;2023-02-01T08:27:23;25.58;;;3.60;;
26512;SDS011;14186;53.822;10.152;2023-02-01T08:32:24;23.70;;;4.07;;
26512;SDS011;14186;53.822;10.152;2023-02-01T08:37:26;19.45;;;3.45;;
26512;SDS011;14186;53.822;10.152;2023-02-01T08:42:26;32.28;;;4.03;;
26512;SDS011;14186;53.822;10.152;2023-02-01T08:47:26;18.70;;;2.92;;
26512;SDS011;14186;53.822;10.152;2023-02-01T08:52:28;14.10;;;1.67;;
26512;SDS011;14186;53.822;10.152;2023-02-01T08:57:28;14.20;;;1.58;;
26512;SDS011;14186;53.822;10.152;2023-02-01T09:02:29;16.48;;;1.85;;
26512;SDS011;14186;53.822;10.152;2023-02-01T09:07:31;9.55;;;1.58;;
26512;SDS011;14186;53.822;10.152;2023-02-01T09:12:32;6.47;;;1.20;;
26512;SDS011;14186;53.822;10.152;2023-02-01T09:17:33;10.82;;;1.33;;
26512;SDS011;14186;53.822;10.152;2023-02-01T09:22:37;11.38;;;1.85;;
26512;SDS011;14186;53.822;10.152;2023-02-01T09:27:37;9.18;;;1.40;;
26512;SDS011;14186;53.822;10.152;2023-02-01T09:32:37;11.48;;;1.33;;
26512;SDS011;14186;53.822;10.152;2023-02-01T09:37:39;16.50;;;2.33;;
26512;SDS011;14186;53.822;10.152;2023-02-01T09:42:46;20.77;;;2.55;;
26512;SDS011;14186;53.822;10.152;2023-02-01T09:47:49;18.88;;;2.53;;
26512;SDS011;14186;53.822;10.152;2023-02-01T09:52:54;21.25;;;3.13;;
26512;SDS011;14186;53.822;10.152;2023-02-01T09:57:56;29.80;;;3.60;;
26512;SDS011;14186;53.822;10.152;2023-02-01T10:02:58;28.45;;;3.70;;
26512;SDS011;14186;53.822;10.152;2023-02-01T10:08:01;26.52;;;3.38;;
26512;SDS011;14186;53.822;10.152;2023-02-01T10:13:09;34.03;;;4.20;;
26512;SDS011;14186;53.822;10.152;2023-02-01T10:18:17;25.05;;;4.32;;
26512;SDS011;14186;53.822;10.152;2023-02-01T10:23:24;30.50;;;5.88;;
26512;SDS011;14186;53.822;10.152;2023-02-01T10:28:28;27.42;;;3.75;;
26512;SDS011;14186;53.822;10.152;2023-02-01T10:33:33;23.67;;;3.30;;
26512;SDS011;14186;53.822;10.152;2023-02-01T10:38:35;27.33;;;3.45;;
26512;SDS011;14186;53.822;10.152;2023-02-01T10:43:35;19.83;;;3.60;;
26512;SDS011;14186;53.822;10.152;2023-02-01T10:48:35;22.08;;;5.45;;
26512;SDS011;14186;53.822;10.152;2023-02-01T10:53:38;18.27;;;2.92;;
26512;SDS011;14186;53.822;10.152;2023-02-01T10:58:43;29.85;;;4.22;;
26512;SDS011;14186;53.822;10.152;2023-02-01T11:03:44;18.90;;;3.30;;
26512;SDS011;14186;53.822;10.152;2023-02-01T11:08:47;20.65;;;3.03;;
26512;SDS011;14186;53.822;10.152;2023-02-01T11:13:51;19.88;;;3.65;;
26512;SDS011;14186;53.822;10.152;2023-02-01T11:18:52;30.45;;;4.57;;
26512;SDS011;14186;53.822;10.152;2023-02-01T11:23:54;26.52;;;3.45;;
26512;SDS011;14186;53.822;10.152;2023-02-01T11:28:56;17.08;;;2.33;;
26512;SDS011;14186;53.822;10.152;2023-02-01T11:33:58;17.65;;;2.55;;
26512;SDS011;14186;53.822;10.152;2023-02-01T11:39:20;17.42;;;3.47;;
26512;SDS011;14186;53.822;10.152;2023-02-01T11:44:21;19.52;;;3.45;;
26512;SDS011;14186;53.822;10.152;2023-02-01T11:49:23;19.15;;;3.25;;
26512;SDS011;14186;53.822;10.152;2023-02-01T11:54:31;25.95;;;3.88;;
26512;SDS011;14186;53.822;10.152;2023-02-01T11:59:42;17.77;;;2.58;;
26512;SDS011;14186;53.822;10.152;2023-02-01T12:04:53;11.38;;;1.83;;
26512;SDS011;14186;53.822;10.152;2023-02-01T12:10:01;20.45;;;2.13;;
26512;SDS011;14186;53.822;10.152;2023-02-01T12:20:27;15.02;;;2.45;;
26512;SDS011;14186;53.822;10.152;2023-02-01T12:25:35;18.67;;;2.95;;
26512;SDS011;14186;53.822;10.152;2023-02-01T12:30:44;12.90;;;2.25;;
26512;SDS011;14186;53.822;10.152;2023-02-01T12:35:56;12.90;;;2.15;;
26512;SDS011;14186;53.822;10.152;2023-02-01T12:41:05;8.80;;;1.35;;
26512;SDS011;14186;53.822;10.152;2023-02-01T12:46:08;8.30;;;1.10;;
26512;SDS011;14186;53.822;10.152;2023-02-01T12:51:09;9.68;;;1.42;;
26512;SDS011;14186;53.822;10.152;2023-02-01T12:56:15;8.68;;;1.27;;
26512;SDS011;14186;53.822;10.152;2023-02-01T13:01:17;4.28;;;0.80;;
26512;SDS011;14186;53.822;10.152;2023-02-01T13:06:19;9.07;;;1.33;;
26512;SDS011;14186;53.822;10.152;2023-02-01T13:11:22;2.75;;;0.30;;
26512;SDS011;14186;53.822;10.152;2023-02-01T13:16:25;4.05;;;0.80;;
26512;SDS011;14186;53.822;10.152;2023-02-01T13:21:27;3.30;;;0.50;;
26512;SDS011;14186;53.822;10.152;2023-02-01T13:26:31;2.42;;;0.50;;
26512;SDS011;14186;53.822;10.152;2023-02-01T13:31:51;3.28;;;0.57;;
26512;SDS011;14186;53.822;10.152;2023-02-01T13:36:56;5.47;;;0.60;;
26512;SDS011;14186;53.822;10.152;2023-02-01T13:42:00;7.15;;;0.80;;
26512;SDS011;14186;53.822;10.152;2023-02-01T13:47:02;5.93;;;0.90;;
26512;SDS011;14186;53.822;10.152;2023-02-01T13:52:03;6.65;;;0.85;;
26512;SDS011;14186;53.822;10.152;2023-02-01T13:57:06;2.97;;;0.55;;
26512;SDS011;14186;53.822;10.152;2023-02-01T14:07:33;5.47;;;1.08;;
26512;SDS011;14186;53.822;10.152;2023-02-01T14:12:45;7.03;;;0.65;;
26512;SDS011;14186;53.822;10.152;2023-02-01T14:17:46;13.45;;;1.42;;
26512;SDS011;14186;53.822;10.152;2023-02-01T14:22:46;7.97;;;1.35;;
26512;SDS011;14186;53.822;10.152;2023-02-01T14:27:48;12.90;;;1.88;;
26512;SDS011;14186;53.822;10.152;2023-02-01T14:32:48;8.73;;;0.95;;
26512;SDS011;14186;53.822;10.152;2023-02-01T14:37:50;5.53;;;0.55;;
26512;SDS011;14186;53.822;10.152;2023-02-01T14:42:53;3.58;;;0.43;;
26512;SDS011;14186;53.822;10.152;2023-02-01T14:47:53;7.05;;;0.75;;
26512;SDS011;14186;53.822;10.152;2023-02-01T14:58:29;9.32;;;1.30;;
26512;SDS011;14186;53.822;10.152;2023-02-01T15:03:38;12.50;;;1.80;;
26512;SDS011;14186;53.822;10.152;2023-02-01T15:08:41;12.57;;;2.05;;
26512;SDS011;14186;53.822;10.152;2023-02-01T15:13:47;22.73;;;2.25;;
26512;SDS011;14186;53.822;10.152;2023-02-01T15:18:47;12.38;;;1.98;;
26512;SDS011;14186;53.822;10.152;2023-02-01T15:23:47;17.20;;;2.13;;
26512;SDS011;14186;53.822;10.152;2023-02-01T15:28:49;14.48;;;3.40;;
26512;SDS011;14186;53.822;10.152;2023-02-01T15:33:55;12.13;;;1.73;;
26512;SDS011;14186;53.822;10.152;2023-02-01T15:44:17;17.67;;;1.95;;
26512;SDS011;14186;53.822;10.152;2023-02-01T15:49:19;18.95;;;2.42;;
26512;SDS011;14186;53.822;10.152;2023-02-01T15:54:22;20.67;;;2.97;;
26512;SDS011;14186;53.822;10.152;2023-02-01T15:59:37;17.30;;;2.60;;
26512;SDS011;14186;53.822;10.152;2023-02-01T16:04:46;15.43;;;2.95;;
26512;SDS011;14186;53.822;10.152;2023-02-01T16:09:48;20.38;;;3.13;;
26512;SDS011;14186;53.822;10.152;2023-02-01T16:14:52;23.70;;;2.77;;
26512;SDS011;14186;53.822;10.152;2023-02-01T16:19:52;20.85;;;3.47;;
26512;SDS011;14186;53.822;10.152;2023-02-01T16:24:52;21.40;;;3.33;;
26512;SDS011;14186;53.822;10.152;2023-02-01T16:29:54;19.83;;;2.42;;
26512;SDS011;14186;53.822;10.152;2023-02-01T16:34:54;26.70;;;2.95;;
26512;SDS011;14186;53.822;10.152;2023-02-01T16:39:56;17.52;;;3.03;;
26512;SDS011;14186;53.822;10.152;2023-02-01T16:44:57;24.20;;;3.22;;
26512;SDS011;14186;53.822;10.152;2023-02-01T16:49:58;25.98;;;3.25;;
26512;SDS011;14186;53.822;10.152;2023-02-01T16:54:58;24.27;;;3.83;;
26512;SDS011;14186;53.822;10.152;2023-02-01T16:59:59;29.88;;;4.13;;
26512;SDS011;14186;53.822;10.152;2023-02-01T17:05:00;31.88;;;3.78;;
26512;SDS011;14186;53.822;10.152;2023-02-01T17:10:00;25.38;;;3.67;;
26512;SDS011;14186;53.822;10.152;2023-02-01T17:15:01;27.90;;;3.50;;
26512;SDS011;14186;53.822;10.152;2023-02-01T17:20:02;32.42;;;4.55;;
26512;SDS011;14186;53.822;10.152;2023-02-01T17:25:03;29.45;;;3.58;;
26512;SDS011;14186;53.822;10.152;2023-02-01T17:30:05;26.05;;;3.80;;
26512;SDS011;14186;53.822;10.152;2023-02-01T17:35:08;34.45;;;3.47;;
26512;SDS011;14186;53.822;10.152;2023-02-01T17:40:11;30.85;;;3.33;;
26512;SDS011;14186;53.822;10.152;2023-02-01T17:45:18;25.08;;;3.90;;
26512;SDS011;14186;53.822;10.152;2023-02-01T17:50:19;33.55;;;4.43;;
26512;SDS011;14186;53.822;10.152;2023-02-01T17:55:20;28.23;;;4.13;;
26512;SDS011;14186;53.822;10.152;2023-02-01T18:00:22;24.73;;;3.40;;
26512;SDS011;14186;53.822;10.152;2023-02-01T18:05:22;31.83;;;4.10;;
26512;SDS011;14186;53.822;10.152;2023-02-01T18:10:23;17.05;;;3.17;;
26512;SDS011;14186;53.822;10.152;2023-02-01T18:15:25;25.88;;;3.40;;
26512;SDS011;14186;53.822;10.152;2023-02-01T18:20:25;23.42;;;3.50;;
26512;SDS011;14186;53.822;10.152;2023-02-01T18:25:26;31.98;;;3.78;;
26512;SDS011;14186;53.822;10.152;2023-02-01T18:30:29;26.98;;;4.57;;
26512;SDS011;14186;53.822;10.152;2023-02-01T18:35:30;28.88;;;4.50;;
26512;SDS011;14186;53.822;10.152;2023-02-01T18:40:32;24.17;;;3.03;;
26512;SDS011;14186;53.822;10.152;2023-02-01T18:45:35;35.63;;;4.88;;
26512;SDS011;14186;53.822;10.152;2023-02-01T18:50:36;24.63;;;4.13;;
26512;SDS011;14186;53.822;10.152;2023-02-01T18:55:36;29.75;;;3.97;;
26512;SDS011;14186;53.822;10.152;2023-02-01T19:00:38;25.25;;;3.67;;
26512;SDS011;14186;53.822;10.152;2023-02-01T19:05:38;23.70;;;3.25;;
26512;SDS011;14186;53.822;10.152;2023-02-01T19:10:40;29.92;;;4.63;;
26512;SDS011;14186;53.822;10.152;2023-02-01T19:15:41;26.77;;;4.00;;
26512;SDS011;14186;53.822;10.152;2023-02-01T19:20:42;25.38;;;3.92;;
26512;SDS011;14186;53.822;10.152;2023-02-01T19:25:42;22.52;;;4.57;;
26512;SDS011;14186;53.822;10.152;2023-02-01T19:30:44;12.98;;;2.35;;
26512;SDS011;14186;53.822;10.152;2023-02-01T19:35:44;15.43;;;2.20;;
26512;SDS011;14186;53.822;10.152;2023-02-01T19:40:47;21.30;;;2.22;;
26512;SDS011;14186;53.822;10.152;2023-02-01T19:45:49;28.52;;;2.78;;
26512;SDS011;14186;53.822;10.152;2023-02-01T19:50:49;25.63;;;3.08;;
26512;SDS011;14186;53.822;10.152;2023-02-01T19:55:50;17.75;;;2.20;;
26512;SDS011;14186;53.822;10.152;2023-02-01T20:00:53;16.52;;;2.05;;
26512;SDS011;14186;53.822;10.152;2023-02-01T20:05:53;14.30;;;2.17;;
26512;SDS011;14186;53.822;10.152;2023-02-01T20:10:54;18.05;;;2.22;;
26512;SDS011;14186;53.822;10.152;2023-02-01T20:15:56;13.75;;;1.90;;
26512;SDS011;14186;53.822;10.152;2023-02-01T20:20:57;13.10;;;2.20;;
26512;SDS011;14186;53.822;10.152;2023-02-01T20:25:59;18.15;;;2.35;;
26512;SDS011;14186;53.822;10.152;2023-02-01T20:31:01;20.20;;;3.00;;
26512;SDS011;14186;53.822;10.152;2023-02-01T20:36:01;23.70;;;3.45;;
26512;SDS011;14186;53.822;10.152;2023-02-01T20:41:02;24.20;;;3.80;;
26512;SDS011;14186;53.822;10.152;2023-02-01T20:46:04;25.25;;;3.95;;
26512;SDS011;14186;53.822;10.152;2023-02-01T20:51:04;35.33;;;4.43;;
26512;SDS011;14186;53.822;10.152;2023-02-01T20:56:05;33.80;;;4.53;;
26512;SDS011;14186;53.822;10.152;2023-02-01T21:01:07;32.00;;;4.57;;
26512;SDS011;14186;53.822;10.152;2023-02-01T21:06:08;32.05;;;4.18;;
26512;SDS011;14186;53.822;10.152;2023-02-01T21:11:10;29.55;;;3.65;;
26512;SDS011;14186;53.822;10.152;2023-02-01T21:16:12;33.83;;;4.63;;
26512;SDS011;14186;53.822;10.152;2023-02-01T21:21:13;28.27;;;4.05;;
26512;SDS011;14186;53.822;10.152;2023-02-01T21:26:13;25.73;;;3.30;;
26512;SDS011;14186;53.822;10.152;2023-02-01T21:31:15;35.58;;;4.70;;
26512;SDS011;14186;53.822;10.152;2023-02-01T21:36:16;30.08;;;4.32;;
26512;SDS011;14186;53.822;10.152;2023-02-01T21:41:16;30.00;;;4.35;;
26512;SDS011;14186;53.822;10.152;2023-02-01T21:46:18;30.30;;;3.80;;
26512;SDS011;14186;53.822;10.152;2023-02-01T21:51:18;32.58;;;4.35;;
26512;SDS011;14186;53.822;10.152;2023-02-01T21:56:19;25.88;;;3.88;;
26512;SDS011;14186;53.822;10.152;2023-02-01T22:01:20;38.95;;;4.05;;
26512;SDS011;14186;53.822;10.152;2023-02-01T22:06:21;24.08;;;4.00;;
26512;SDS011;14186;53.822;10.152;2023-02-01T22:11:22;37.22;;;4.97;;
26512;SDS011;14186;53.822;10.152;2023-02-01T22:16:24;24.50;;;3.72;;
26512;SDS011;14186;53.822;10.152;2023-02-01T22:21:24;21.77;;;4.00;;
26512;SDS011;14186;53.822;10.152;2023-02-01T22:26:25;21.67;;;3.22;;
26512;SDS011;14186;53.822;10.152;2023-02-01T22:31:27;28.70;;;3.10;;
26512;SDS011;14186;53.822;10.152;2023-02-01T22:36:27;27.33;;;3.72;;
26512;SDS011;14186;53.822;10.152;2023-02-01T22:41:27;30.25;;;4.22;;
26512;SDS011;14186;53.822;10.152;2023-02-01T22:46:29;29.45;;;4.20;;
26512;SDS011;14186;53.822;10.152;2023-02-01T22:51:30;26.63;;;4.55;;
26512;SDS011;14186;53.822;10.152;2023-02-01T22:56:31;22.00;;;3.08;;
26512;SDS011;14186;53.822;10.152;2023-02-01T23:01:33;24.58;;;3.47;;
26512;SDS011;14186;53.822;10.152;2023-02-01T23:06:33;32.70;;;4.43;;
26512;SDS011;14186;53.822;10.152;2023-02-01T23:11:34;19.20;;;2.65;;
26512;SDS011;14186;53.822;10.152;2023-02-01T23:16:35;22.92;;;3.47;;
26512;SDS011;14186;53.822;10.152;2023-02-01T23:21:35;16.75;;;2.25;;
26512;SDS011;14186;53.822;10.152;2023-02-01T23:26:36;20.17;;;3.28;;
26512;SDS011;14186;53.822;10.152;2023-02-01T23:31:38;13.38;;;2.13;;
26512;SDS011;14186;53.822;10.152;2023-02-01T23:36:38;21.42;;;3.20;;
26512;SDS011;14186;53.822;10.152;2023-02-01T23:41:38;21.95;;;2.95;;
26512;SDS011;14186;53.822;10.152;2023-02-01T23:46:40;20.52;;;3.40;;
26512;SDS011;14186;53.822;10.152;2023-02-01T23:51:41;25.55;;;3.78;;
26512;SDS011;14186;53.822;10.152;2023-02-01T23:56:42;29.20;;;3.95;;
